createdAt,value
2022-07-25T00:01:46.681Z,73.50
2022-07-25T00:04:14.376Z,74.20
2022-07-25T00:06:42.674Z,74.50
2022-07-25T00:09:10.044Z,74.30
2022-07-25T00:11:37.062Z,74.50
2022-07-25T00:14:05.156Z,74.30
2022-07-25T00:16:32.244Z,74.50
2022-07-25T00:18:59.060Z,75.30
2022-07-25T00:21:25.944Z,74.70
2022-07-25T00:23:52.631Z,75.20
2022-07-25T00:26:19.652Z,75.50
2022-07-25T00:28:46.335Z,76.00
2022-07-25T00:31:13.087Z,76.20
2022-07-25T00:33:40.269Z,76.50
2022-07-25T00:36:10.298Z,76.70
2022-07-25T00:38:37.163Z,76.50
2022-07-25T00:41:04.659Z,76.30
2022-07-25T00:43:32.253Z,76.60
2022-07-25T00:45:59.788Z,75.80
2022-07-25T00:48:28.808Z,75.60
2022-07-25T00:50:59.873Z,75.60
2022-07-25T00:53:26.688Z,75.60
2022-07-25T00:55:53.656Z,75.60
2022-07-25T00:58:20.451Z,75.30
2022-07-25T01:00:47.992Z,75.60
2022-07-25T01:03:15.843Z,75.60
2022-07-25T01:05:42.884Z,75.90
2022-07-25T01:08:09.831Z,76.40
2022-07-25T01:10:37.481Z,77.00
2022-07-25T01:13:04.764Z,77.00
2022-07-25T01:15:32.132Z,76.70
2022-07-25T01:17:59.003Z,76.90
2022-07-25T01:20:29.214Z,76.70
2022-07-25T01:22:56.622Z,76.20
2022-07-25T01:25:24.720Z,76.60
2022-07-25T01:27:55.928Z,76.50
2022-07-25T01:30:24.385Z,76.80
2022-07-25T01:32:51.516Z,76.60
2022-07-25T01:35:18.362Z,76.60
2022-07-25T01:37:45.438Z,75.80
2022-07-25T01:40:13.233Z,76.30
2022-07-25T01:42:39.970Z,76.30
2022-07-25T01:45:07.386Z,76.40
2022-07-25T01:47:34.050Z,76.60
2022-07-25T01:50:00.756Z,76.30
2022-07-25T01:52:27.480Z,76.40
2022-07-25T01:54:54.199Z,76.40
2022-07-25T01:57:21.476Z,76.50
2022-07-25T01:59:50.649Z,77.00
2022-07-25T02:02:17.316Z,77.00
2022-07-25T02:04:44.023Z,77.20
2022-07-25T02:07:10.828Z,77.30
2022-07-25T02:09:37.550Z,77.20
2022-07-25T02:12:04.517Z,77.40
2022-07-25T02:14:31.177Z,77.40
2022-07-25T02:16:57.990Z,77.90
2022-07-25T02:19:24.683Z,77.70
2022-07-25T02:21:51.579Z,77.90
2022-07-25T02:24:18.333Z,77.70
2022-07-25T02:26:44.996Z,77.90
2022-07-25T02:29:11.774Z,77.70
2022-07-25T02:31:38.481Z,77.70
2022-07-25T02:34:05.605Z,77.90
2022-07-25T02:36:32.557Z,78.00
2022-07-25T02:38:59.298Z,78.20
2022-07-25T02:41:25.972Z,78.50
2022-07-25T02:43:52.680Z,78.30
2022-07-25T02:46:19.434Z,78.70
2022-07-25T02:48:46.305Z,78.70
2022-07-25T02:51:13.585Z,78.70
2022-07-25T02:53:56.194Z,78.70
2022-07-25T02:56:23.706Z,78.20
2022-07-25T02:58:50.512Z,78.20
2022-07-25T03:01:17.279Z,79.00
2022-07-25T03:03:44.037Z,78.60
2022-07-25T03:06:10.736Z,78.30
2022-07-25T03:08:37.600Z,78.20
2022-07-25T03:11:04.598Z,78.40
2022-07-25T03:13:33.093Z,78.60
2022-07-25T03:16:00.011Z,78.70
2022-07-25T03:18:26.702Z,78.40
2022-07-25T03:20:53.432Z,78.30
2022-07-25T03:23:20.159Z,78.20
2022-07-25T03:25:46.825Z,78.60
2022-07-25T03:28:13.545Z,78.40
2022-07-25T03:30:40.461Z,78.40
2022-07-25T03:33:07.155Z,78.40
2022-07-25T03:35:33.825Z,78.70
2022-07-25T03:38:02.093Z,78.40
2022-07-25T03:40:28.846Z,78.20
2022-07-25T03:42:55.570Z,78.50
2022-07-25T03:45:22.341Z,78.50
2022-07-25T03:47:49.233Z,78.50
2022-07-25T03:50:16.232Z,78.80
2022-07-25T03:52:42.997Z,78.60
2022-07-25T03:55:11.144Z,78.50
2022-07-25T03:57:38.917Z,78.40
2022-07-25T04:00:07.964Z,78.80
2022-07-25T04:02:35.246Z,78.80
2022-07-25T04:05:01.976Z,78.80
2022-07-25T04:07:28.638Z,78.60
2022-07-25T04:09:55.914Z,78.60
2022-07-25T04:12:22.587Z,78.10
2022-07-25T04:14:49.331Z,78.50
2022-07-25T04:17:16.099Z,78.80
2022-07-25T04:19:42.826Z,79.00
2022-07-25T04:22:10.163Z,79.20
2022-07-25T04:24:37.402Z,79.40
2022-07-25T04:27:04.221Z,79.30
2022-07-25T04:29:30.925Z,79.70
2022-07-25T04:31:58.145Z,79.50
2022-07-25T04:34:25.024Z,79.60
2022-07-25T04:36:51.746Z,79.30
2022-07-25T04:39:18.452Z,79.70
2022-07-25T04:41:45.117Z,79.60
2022-07-25T04:44:11.837Z,79.50
2022-07-25T04:46:38.546Z,79.60
2022-07-25T04:49:05.343Z,79.60
2022-07-25T04:51:32.052Z,79.70
2022-07-25T04:53:58.741Z,79.10
2022-07-25T04:56:25.479Z,79.30
2022-07-25T04:58:52.165Z,79.30
2022-07-25T05:01:18.971Z,80.00
2022-07-25T05:03:50.141Z,79.50
2022-07-25T05:06:19.467Z,79.20
2022-07-25T05:08:46.380Z,78.70
2022-07-25T05:11:13.246Z,78.60
2022-07-25T05:13:39.965Z,77.70
2022-07-25T05:16:06.995Z,77.80
2022-07-25T05:18:34.828Z,77.70
2022-07-25T05:21:01.746Z,77.00
2022-07-25T05:23:28.449Z,76.90
2022-07-25T05:25:55.152Z,77.00
2022-07-25T05:28:21.842Z,76.80
2022-07-25T05:30:48.519Z,76.40
2022-07-25T05:33:15.280Z,76.60
2022-07-25T05:35:42.071Z,76.10
2022-07-25T05:38:08.738Z,76.40
2022-07-25T05:40:35.419Z,76.20
2022-07-25T05:43:03.566Z,75.70
2022-07-25T05:45:31.965Z,75.20
2022-07-25T05:47:58.665Z,74.80
2022-07-25T05:50:25.760Z,74.70
2022-07-25T05:52:52.449Z,75.00
2022-07-25T05:55:19.378Z,75.30
2022-07-25T05:57:46.073Z,75.40
2022-07-25T06:00:13.227Z,75.40
2022-07-25T06:02:40.096Z,75.10
2022-07-25T06:05:07.216Z,75.10
2022-07-25T06:07:33.882Z,75.60
2022-07-25T06:10:00.555Z,75.00
2022-07-25T06:12:27.252Z,74.50
2022-07-25T06:14:54.075Z,74.40
2022-07-25T06:17:20.971Z,74.80
2022-07-25T06:19:47.701Z,74.70
2022-07-25T06:22:14.741Z,74.90
2022-07-25T06:24:41.596Z,74.80
2022-07-25T06:27:08.713Z,75.20
2022-07-25T06:29:35.569Z,74.90
2022-07-25T06:32:02.543Z,75.20
2022-07-25T06:34:29.584Z,75.10
2022-07-25T06:36:57.587Z,74.50
2022-07-25T06:39:25.585Z,75.10
2022-07-25T06:41:52.329Z,74.10
2022-07-25T06:44:19.103Z,73.60
2022-07-25T06:46:45.834Z,73.60
2022-07-25T06:49:12.637Z,73.30
2022-07-25T06:51:39.401Z,73.00
2022-07-25T06:54:07.133Z,72.90
2022-07-25T06:56:34.557Z,72.30
2022-07-25T06:59:01.262Z,72.10
2022-07-25T07:01:28.164Z,72.00
2022-07-25T07:03:54.985Z,72.00
2022-07-25T07:06:21.774Z,72.90
2022-07-25T07:08:48.490Z,73.50
2022-07-25T07:11:16.629Z,71.70
2022-07-25T07:13:43.297Z,71.60
2022-07-25T07:16:10.149Z,72.50
2022-07-25T07:18:37.569Z,71.60
2022-07-25T07:21:05.553Z,70.80
2022-07-25T07:23:32.818Z,71.90
2022-07-25T07:25:59.899Z,72.40
2022-07-25T07:28:26.614Z,71.80
2022-07-25T07:33:40.213Z,71.00
2022-07-25T07:36:07.234Z,72.10
2022-07-25T07:38:34.478Z,71.90
2022-07-25T07:41:01.168Z,72.20
2022-07-25T07:43:30.435Z,72.00
2022-07-25T07:46:01.178Z,72.80
2022-07-25T07:48:31.931Z,72.40
2022-07-25T07:51:00.494Z,70.20
2022-07-25T07:53:47.997Z,69.20
2022-07-25T07:56:16.212Z,70.30
2022-07-25T07:58:43.211Z,70.00
2022-07-25T08:01:09.867Z,69.00
2022-07-25T08:03:36.557Z,67.90
2022-07-25T08:06:04.332Z,69.00
2022-07-25T08:08:31.832Z,65.80
2022-07-25T08:10:59.450Z,67.20
2022-07-25T08:13:30.443Z,66.80
2022-07-25T08:15:59.006Z,67.00
2022-07-25T08:18:29.760Z,67.50
2022-07-25T08:20:56.754Z,65.60
2022-07-25T08:23:25.227Z,65.30
2022-07-25T08:25:52.293Z,66.40
2022-07-25T08:28:19.335Z,66.30
2022-07-25T08:30:46.512Z,66.60
2022-07-25T08:33:15.957Z,65.90
2022-07-25T08:35:48.449Z,65.60
2022-07-25T08:38:15.346Z,67.30
2022-07-25T08:40:42.012Z,66.20
2022-07-25T08:43:12.896Z,65.90
2022-07-25T08:45:48.226Z,66.50
2022-07-25T08:48:18.142Z,66.90
2022-07-25T08:50:45.816Z,65.80
2022-07-25T08:53:32.823Z,66.80
2022-07-25T08:56:00.813Z,66.30
2022-07-25T08:58:27.498Z,67.30
2022-07-25T09:00:54.152Z,66.90
2022-07-25T09:03:20.915Z,67.20
2022-07-25T09:05:47.840Z,67.60
2022-07-25T09:08:17.832Z,67.00
2022-07-25T09:10:50.663Z,65.10
2022-07-25T09:13:20.213Z,66.20
2022-07-25T09:15:51.306Z,66.40
2022-07-25T09:18:23.622Z,66.90
2022-07-25T09:20:51.633Z,67.10
2022-07-25T09:23:37.843Z,67.00
2022-07-25T09:26:15.221Z,67.50
2022-07-25T09:28:51.168Z,66.80
2022-07-25T09:31:21.288Z,66.70
2022-07-25T09:33:56.326Z,67.30
2022-07-25T09:36:23.690Z,67.30
2022-07-25T09:38:54.929Z,65.70
2022-07-25T09:41:22.771Z,65.00
2022-07-25T09:43:49.578Z,65.90
2022-07-25T09:46:16.698Z,65.70
2022-07-25T09:48:45.500Z,65.00
2022-07-25T09:51:12.296Z,64.40
2022-07-25T09:53:40.278Z,64.90
2022-07-25T09:56:08.503Z,63.40
2022-07-25T09:58:35.231Z,63.70
2022-07-25T10:01:06.180Z,63.60
2022-07-25T10:04:12.512Z,64.70
2022-07-25T10:06:49.461Z,65.00
2022-07-25T10:09:16.751Z,65.80
2022-07-25T10:12:03.446Z,66.10
2022-07-25T10:14:30.238Z,66.00
2022-07-25T10:16:57.076Z,66.20
2022-07-25T10:19:58.860Z,67.50
2022-07-25T10:22:59.814Z,67.70
2022-07-25T10:25:26.939Z,67.70
2022-07-25T10:28:03.664Z,69.80
2022-07-25T10:30:39.052Z,70.50
2022-07-25T10:33:18.003Z,72.90
2022-07-25T10:35:45.735Z,75.70
2022-07-25T10:38:12.542Z,77.10
2022-07-25T10:40:42.128Z,78.00
2022-07-25T10:43:13.762Z,78.60
2022-07-25T10:45:59.071Z,80.10
2022-07-25T10:48:28.679Z,80.60
2022-07-25T10:51:01.005Z,81.10
2022-07-25T10:53:48.642Z,82.20
2022-07-25T10:56:16.783Z,79.20
2022-07-25T10:58:57.814Z,81.70
2022-07-25T11:01:27.546Z,81.20
2022-07-25T11:03:56.773Z,80.70
2022-07-25T11:06:43.474Z,80.40
2022-07-25T11:09:19.860Z,77.80
2022-07-25T11:11:51.209Z,77.80
2022-07-25T11:14:17.867Z,77.10
2022-07-25T11:16:46.581Z,77.40
2022-07-25T11:19:18.498Z,76.80
2022-07-25T11:21:47.551Z,76.30
2022-07-25T11:24:14.748Z,76.10
2022-07-25T11:26:49.452Z,76.00
2022-07-25T11:29:26.858Z,76.30
2022-07-25T11:32:02.082Z,76.60
2022-07-25T11:34:34.840Z,76.10
2022-07-25T11:37:05.174Z,75.40
2022-07-25T11:39:34.495Z,74.80
2022-07-25T11:42:22.854Z,74.30
2022-07-25T11:44:52.747Z,73.50
2022-07-25T11:47:30.985Z,73.60
2022-07-25T11:50:00.028Z,75.50
2022-07-25T11:52:38.250Z,74.50
2022-07-25T11:55:13.394Z,74.30
2022-07-25T11:57:44.327Z,74.20
2022-07-25T12:00:17.796Z,73.80
2022-07-25T12:02:45.739Z,73.40
2022-07-25T12:05:15.192Z,74.00
2022-07-25T12:07:49.829Z,74.10
2022-07-25T12:10:24.858Z,73.40
2022-07-25T12:12:56.947Z,73.00
2022-07-25T12:15:36.347Z,72.90
2022-07-25T12:18:03.294Z,72.40
2022-07-25T12:20:34.989Z,71.90
2022-07-25T12:23:04.671Z,72.80
2022-07-25T12:25:32.148Z,72.40
2022-07-25T12:28:00.395Z,71.40
2022-07-25T12:30:28.548Z,71.50
2022-07-25T12:32:56.742Z,71.40
2022-07-25T12:35:23.829Z,71.60
2022-07-25T12:37:51.712Z,72.30
2022-07-25T12:40:19.233Z,70.10
2022-07-25T12:42:46.362Z,70.50
2022-07-25T12:45:14.677Z,70.20
2022-07-25T12:47:43.845Z,70.50
2022-07-25T12:50:10.598Z,69.80
2022-07-25T12:52:38.324Z,70.50
2022-07-25T12:55:06.834Z,69.80
2022-07-25T12:57:35.048Z,70.10
2022-07-25T13:00:02.305Z,69.10
2022-07-25T13:02:29.036Z,69.70
2022-07-25T13:04:55.740Z,70.40
2022-07-25T13:07:22.495Z,70.70
2022-07-25T13:09:49.169Z,70.80
2022-07-25T13:12:16.647Z,71.40
2022-07-25T13:14:43.459Z,71.10
2022-07-25T13:17:11.425Z,70.50
2022-07-25T13:19:38.122Z,70.20
2022-07-25T13:22:05.654Z,70.70
2022-07-25T13:24:36.221Z,71.00
2022-07-25T13:27:04.593Z,70.70
2022-07-25T13:29:31.423Z,70.60
2022-07-25T13:31:58.167Z,71.90
2022-07-25T13:34:24.865Z,69.90
2022-07-25T13:36:51.565Z,70.10
2022-07-25T13:39:18.485Z,70.40
2022-07-25T13:41:45.177Z,70.50
2022-07-25T13:44:13.584Z,70.80
2022-07-25T13:46:40.281Z,71.10
2022-07-25T13:49:07.282Z,71.80
2022-07-25T13:51:34.407Z,71.90
2022-07-25T13:54:02.008Z,72.20
2022-07-25T13:56:28.785Z,71.90
2022-07-25T13:58:55.519Z,72.00
2022-07-25T14:01:22.556Z,71.70
2022-07-25T14:03:49.291Z,71.90
2022-07-25T14:06:15.957Z,71.70
2022-07-25T14:08:43.131Z,71.10
2022-07-25T14:11:09.834Z,71.40
2022-07-25T14:13:37.437Z,71.10
2022-07-25T14:16:04.683Z,70.70
2022-07-25T14:18:32.387Z,70.70
2022-07-25T14:20:59.538Z,71.50
2022-07-25T14:23:29.871Z,72.00
2022-07-25T14:25:58.758Z,72.20
2022-07-25T14:28:25.701Z,72.50
2022-07-25T14:30:52.421Z,72.40
2022-07-25T14:33:19.163Z,73.20
2022-07-25T14:35:45.830Z,73.00
2022-07-25T14:38:12.586Z,72.20
2022-07-25T14:40:41.469Z,71.50
2022-07-25T14:43:08.447Z,71.80
2022-07-25T14:45:36.896Z,71.80
2022-07-25T14:48:06.025Z,72.10
2022-07-25T14:50:32.752Z,71.20
2022-07-25T14:52:59.443Z,71.70
2022-07-25T14:55:26.886Z,72.40
2022-07-25T14:57:53.649Z,72.50
2022-07-25T15:00:20.613Z,72.10
2022-07-25T15:02:48.771Z,71.20
2022-07-25T15:05:15.485Z,71.30
2022-07-25T15:07:42.258Z,71.50
2022-07-25T15:10:09.313Z,71.50
2022-07-25T15:12:36.362Z,71.40
2022-07-25T15:15:03.641Z,71.30
2022-07-25T15:17:30.324Z,71.60
2022-07-25T15:19:57.108Z,72.00
2022-07-25T15:22:23.867Z,73.00
2022-07-25T15:25:27.195Z,74.60
2022-07-25T15:27:38.319Z,74.70
2022-07-25T15:30:06.333Z,74.00
2022-07-25T15:32:33.104Z,74.50
2022-07-25T15:34:59.793Z,75.00
2022-07-25T15:37:28.002Z,75.50
2022-07-25T15:39:54.688Z,76.10
2022-07-25T15:42:24.477Z,76.30
2022-07-25T15:45:15.172Z,77.10
2022-07-25T15:47:40.730Z,77.00
2022-07-25T15:50:08.125Z,77.00
2022-07-25T15:52:35.045Z,76.20
2022-07-25T15:55:01.729Z,76.80
2022-07-25T15:57:28.520Z,76.80
2022-07-25T15:59:55.230Z,77.40
2022-07-25T16:02:21.946Z,77.60
2022-07-25T16:04:48.638Z,77.80
2022-07-25T16:07:15.351Z,78.00
2022-07-25T16:09:43.072Z,78.40
2022-07-25T16:12:11.049Z,78.80
2022-07-25T16:14:38.365Z,79.20
2022-07-25T16:17:05.927Z,79.30
2022-07-25T16:19:32.685Z,79.30
2022-07-25T16:21:59.793Z,79.10
2022-07-25T16:24:26.539Z,79.10
2022-07-25T16:26:54.050Z,78.20
2022-07-25T16:29:20.734Z,77.70
2022-07-25T16:31:47.908Z,77.40
2022-07-25T16:34:14.616Z,77.30
2022-07-25T16:36:41.421Z,77.90
2022-07-25T16:39:08.782Z,78.20
2022-07-25T16:41:35.708Z,77.70
2022-07-25T16:44:02.349Z,77.00
2022-07-25T16:46:29.055Z,77.40
2022-07-25T16:48:55.786Z,77.50
2022-07-25T16:51:22.565Z,77.70
2022-07-25T16:53:49.332Z,77.70
2022-07-25T16:56:17.198Z,76.30
2022-07-25T16:58:43.997Z,76.60
2022-07-25T17:01:11.333Z,76.20
2022-07-25T17:03:38.028Z,76.40
2022-07-25T17:06:05.616Z,75.80
2022-07-25T17:08:34.245Z,75.40
2022-07-25T17:11:01.184Z,75.30
2022-07-25T17:13:27.879Z,73.00
2022-07-25T17:15:54.639Z,71.20
2022-07-25T17:18:21.494Z,71.00
2022-07-25T17:20:48.353Z,71.60
2022-07-25T17:23:15.484Z,71.60
2022-07-25T17:25:44.324Z,71.80
2022-07-25T17:28:14.048Z,71.90
2022-07-25T17:30:40.996Z,72.10
2022-07-25T17:33:07.779Z,72.60
2022-07-25T17:35:34.475Z,72.60
2022-07-25T17:38:01.264Z,72.50
2022-07-25T17:40:28.055Z,72.80
2022-07-25T17:42:54.728Z,72.70
2022-07-25T17:45:21.515Z,72.70
2022-07-25T17:47:48.637Z,73.00
2022-07-25T17:50:16.828Z,73.20
2022-07-25T17:52:44.181Z,73.30
2022-07-25T17:55:12.056Z,73.40
2022-07-25T17:57:42.795Z,74.00
2022-07-25T18:00:11.185Z,74.10
2022-07-25T18:02:41.607Z,74.00
2022-07-25T18:05:08.704Z,74.10
2022-07-25T18:07:35.500Z,74.60
2022-07-25T18:10:03.659Z,74.40
2022-07-25T18:12:30.310Z,74.80
2022-07-25T18:14:56.990Z,74.60
2022-07-25T18:17:23.702Z,74.80
2022-07-25T18:19:50.375Z,75.00
2022-07-25T18:22:17.431Z,75.10
2022-07-25T18:24:44.156Z,75.30
2022-07-25T18:27:11.097Z,75.30
2022-07-25T18:29:38.729Z,75.40
2022-07-25T18:32:06.257Z,75.50
2022-07-25T18:34:33.046Z,76.00
2022-07-25T18:36:59.739Z,76.20
2022-07-25T18:39:26.777Z,76.10
2022-07-25T18:41:53.436Z,76.00
2022-07-25T18:44:20.227Z,76.50
2022-07-25T18:46:47.221Z,76.60
2022-07-25T18:49:14.082Z,76.60
2022-07-25T18:51:40.871Z,76.50
2022-07-25T18:54:07.871Z,77.00
2022-07-25T18:56:34.839Z,76.80
2022-07-25T18:59:01.517Z,76.10
2022-07-25T19:01:29.389Z,76.10
2022-07-25T19:03:56.554Z,75.90
2022-07-25T19:06:23.550Z,76.10
2022-07-25T19:08:50.241Z,75.80
2022-07-25T19:11:16.923Z,74.70
2022-07-25T19:13:51.502Z,74.30
2022-07-25T19:16:18.794Z,73.90
2022-07-25T19:18:45.653Z,73.30
2022-07-25T19:21:12.344Z,73.30
2022-07-25T19:23:39.034Z,73.40
2022-07-25T19:26:06.179Z,73.50
2022-07-25T19:28:32.894Z,73.80
2022-07-25T19:30:59.677Z,73.60
2022-07-25T19:33:34.483Z,73.40
2022-07-25T19:36:03.915Z,74.00
2022-07-25T19:38:30.867Z,73.60
2022-07-25T19:40:57.658Z,74.00
2022-07-25T19:43:24.328Z,74.20
2022-07-25T19:45:51.207Z,74.10
2022-07-25T19:48:17.964Z,74.10
2022-07-25T19:50:45.564Z,74.20
2022-07-25T19:53:12.256Z,74.10
2022-07-25T19:55:38.922Z,73.90
2022-07-25T19:58:08.260Z,73.80
2022-07-25T20:00:35.085Z,73.70
2022-07-25T20:03:01.816Z,73.70
2022-07-25T20:05:28.564Z,74.10
2022-07-25T20:07:55.243Z,73.90
2022-07-25T20:10:23.607Z,73.80
2022-07-25T20:12:50.308Z,73.80
2022-07-25T20:15:17.069Z,74.10
2022-07-25T20:17:43.980Z,74.40
2022-07-25T20:20:11.569Z,74.40
2022-07-25T20:22:38.310Z,74.50
2022-07-25T20:25:10.458Z,74.60
2022-07-25T20:27:37.527Z,74.50
2022-07-25T20:30:07.625Z,74.40
2022-07-25T20:32:34.567Z,74.50
2022-07-25T20:35:01.651Z,74.60
2022-07-25T20:37:28.406Z,74.60
2022-07-25T20:39:55.348Z,74.70
2022-07-25T20:42:22.226Z,75.00
2022-07-25T20:44:49.058Z,74.90
2022-07-25T20:47:16.958Z,75.20
2022-07-25T20:49:43.848Z,75.20
2022-07-25T20:52:10.564Z,75.30
2022-07-25T20:54:37.215Z,75.00
2022-07-25T20:57:04.358Z,75.10
2022-07-25T20:59:32.022Z,75.10
2022-07-25T21:01:59.017Z,75.20
2022-07-25T21:04:25.963Z,75.10
2022-07-25T21:06:52.903Z,75.50
2022-07-25T21:09:23.237Z,75.50
2022-07-25T21:11:49.977Z,75.50
2022-07-25T21:14:16.748Z,75.90
2022-07-25T21:16:43.740Z,75.90
2022-07-25T21:19:10.653Z,76.00
2022-07-25T21:21:37.782Z,76.00
2022-07-25T21:24:06.471Z,75.90
2022-07-25T21:26:33.738Z,76.40
2022-07-25T21:29:00.443Z,76.00
2022-07-25T21:31:27.454Z,76.10
2022-07-25T21:33:54.179Z,76.40
2022-07-25T21:36:20.864Z,76.40
2022-07-25T21:38:47.701Z,76.30
2022-07-25T21:41:14.758Z,76.50
2022-07-25T21:43:41.518Z,76.70
2022-07-25T21:46:08.287Z,76.90
2022-07-25T21:48:54.511Z,77.10
2022-07-25T21:51:23.260Z,77.20
2022-07-25T21:53:54.173Z,77.10
2022-07-25T21:56:20.918Z,77.20
2022-07-25T21:58:47.584Z,77.70
2022-07-25T22:01:14.311Z,77.60
2022-07-25T22:03:41.446Z,77.60
2022-07-25T22:06:08.325Z,77.60
2022-07-25T22:08:35.076Z,77.50
2022-07-25T22:11:15.773Z,77.30
2022-07-25T22:13:43.368Z,77.40
2022-07-25T22:16:10.195Z,77.90
2022-07-25T22:18:36.926Z,78.20
2022-07-25T22:21:04.246Z,78.20
2022-07-25T22:23:30.915Z,78.40
2022-07-25T22:25:57.583Z,78.40
2022-07-25T22:28:24.302Z,78.60
2022-07-25T22:30:50.983Z,78.70
2022-07-25T22:33:17.754Z,79.30
2022-07-25T22:35:44.422Z,79.50
2022-07-25T22:38:11.427Z,79.50
2022-07-25T22:40:38.089Z,79.30
2022-07-25T22:43:04.774Z,79.40
2022-07-25T22:45:31.501Z,79.50
2022-07-25T22:47:58.228Z,79.60
2022-07-25T22:50:25.410Z,79.80
2022-07-25T22:52:52.073Z,80.00
2022-07-25T22:55:18.849Z,80.20
2022-07-25T22:57:45.569Z,80.20
2022-07-25T23:00:12.757Z,80.30
2022-07-25T23:02:40.049Z,80.30
2022-07-25T23:05:10.519Z,80.30
2022-07-25T23:07:38.226Z,80.40
2022-07-25T23:10:05.701Z,80.40
2022-07-25T23:12:32.355Z,80.60
2022-07-25T23:14:59.034Z,80.70
2022-07-25T23:17:25.745Z,80.60
2022-07-25T23:19:54.676Z,81.20
2022-07-25T23:22:23.188Z,81.40
2022-07-25T23:24:50.004Z,81.50
2022-07-25T23:27:16.974Z,82.10
2022-07-25T23:29:43.879Z,81.90
2022-07-25T23:32:10.572Z,82.20
2022-07-25T23:34:37.383Z,82.30
2022-07-25T23:37:04.455Z,82.30
2022-07-25T23:39:31.818Z,82.60
2022-07-25T23:41:59.681Z,82.50
2022-07-25T23:44:26.978Z,82.80
2022-07-25T23:46:56.640Z,83.30
2022-07-25T23:49:24.287Z,83.50
2022-07-25T23:51:51.049Z,83.40
2022-07-25T23:54:17.758Z,83.50
2022-07-25T23:56:44.402Z,83.60
2022-07-25T23:59:11.469Z,83.80
